Time;durP1;ratioP1;P1;durP2;ratioP2;P2;SDS_P1;SDS_P2;PMS_P1;PMS_P2;Temp;Humidity;BMP_temperature;BMP_pressure;BME280_temperature;BME280_humidity;BME280_pressure;Samples;Min_cycle;Max_cycle;Signal;HPM_P1;HPM_P2
2022/06/17 00:01:20;;;;;;;10.35;6.57;;;16.90;99.90;;;;;;5054399;28;20125;-70
2022/06/17 00:03:48;;;;;;;10.95;6.88;;;16.90;99.90;;;;;;5055679;28;20503;-71
2022/06/17 00:06:14;;;;;;;10.95;7.07;;;16.90;99.90;;;;;;5055196;28;20037;-70
2022/06/17 00:08:44;;;;;;;10.48;7.75;;;16.90;99.90;;;;;;5055268;28;20594;-70
2022/06/17 00:11:23;;;;;;;10.02;7.38;;;17.00;99.90;;;;;;5071264;28;20049;-70
2022/06/17 00:13:49;;;;;;;10.80;6.70;;;16.80;99.90;;;;;;5054279;28;20049;-70
2022/06/17 00:16:16;;;;;;;7.03;5.70;;;16.70;99.90;;;;;;5071041;28;20095;-70
2022/06/17 00:18:42;;;;;;;9.38;6.25;;;16.60;99.90;;;;;;5070784;28;20124;-70
2022/06/17 00:21:29;;;;;;;10.65;6.60;;;16.50;99.90;;;;;;5055195;28;20036;-71
2022/06/17 00:23:55;;;;;;;10.30;6.70;;;16.60;99.90;;;;;;5055037;28;20514;-70
2022/06/17 00:26:22;;;;;;;7.78;5.85;;;16.70;99.90;;;;;;5070165;28;20061;-70
2022/06/17 00:28:48;;;;;;;7.93;6.00;;;16.70;99.90;;;;;;5055285;28;20083;-70
2022/06/17 00:31:14;;;;;;;9.07;6.63;;;16.70;99.90;;;;;;5054987;28;20048;-70
2022/06/17 00:33:40;;;;;;;8.52;5.90;;;16.70;99.90;;;;;;5054389;28;20053;-70
2022/06/17 00:36:10;;;;;;;11.35;6.40;;;16.70;99.90;;;;;;5054965;28;20041;-70
2022/06/17 00:38:37;;;;;;;8.05;6.90;;;16.70;99.90;;;;;;5054784;28;20056;-70
2022/06/17 00:41:25;;;;;;;11.40;6.80;;;16.50;99.90;;;;;;5055116;28;20519;-70
2022/06/17 00:43:51;;;;;;;9.60;6.35;;;16.50;99.90;;;;;;5054871;28;20049;-70
2022/06/17 00:46:30;;;;;;;9.35;6.60;;;16.40;99.90;;;;;;5054765;28;20399;-70
2022/06/17 00:49:14;;;;;;;11.63;7.05;;;16.50;99.90;;;;;;5054799;28;20048;-70
2022/06/17 00:51:49;;;;;;;10.50;6.65;;;16.40;99.90;;;;;;5054235;28;20496;-70
2022/06/17 00:54:24;;;;;;;10.95;6.63;;;16.40;99.90;;;;;;5070474;28;20059;-70
2022/06/17 00:56:50;;;;;;;9.95;6.75;;;16.50;99.90;;;;;;5054572;28;20047;-70
2022/06/17 00:59:16;;;;;;;11.07;6.82;;;16.40;99.90;;;;;;5054644;28;20056;-70
2022/06/17 01:02:09;;;;;;;10.27;6.57;;;16.40;99.90;;;;;;5054179;28;20109;-70
2022/06/17 01:04:40;;;;;;;10.70;6.95;;;16.40;99.90;;;;;;5054783;28;20055;-71
2022/06/17 01:07:13;;;;;;;11.95;7.20;;;16.30;99.90;;;;;;5070116;28;20044;-70
2022/06/17 01:09:58;;;;;;;10.88;5.97;;;16.40;99.90;;;;;;5054331;28;20148;-70
2022/06/17 01:12:47;;;;;;;9.93;6.25;;;16.30;99.90;;;;;;5054336;28;20084;-70
2022/06/17 01:15:19;;;;;;;8.68;6.28;;;16.30;99.90;;;;;;5048386;28;20053;-70
2022/06/17 01:17:48;;;;;;;10.65;7.00;;;16.30;99.90;;;;;;5054207;28;20045;-70
2022/06/17 01:20:15;;;;;;;11.77;7.00;;;16.20;99.90;;;;;;5069403;28;20084;-70
2022/06/17 01:22:41;;;;;;;9.23;6.68;;;16.20;99.90;;;;;;5053831;28;20567;-70
2022/06/17 01:25:27;;;;;;;10.50;6.85;;;16.10;99.90;;;;;;5053786;28;20094;-70
2022/06/17 01:27:59;;;;;;;7.97;6.13;;;16.10;99.90;;;;;;5054089;28;20114;-70
2022/06/17 01:30:39;;;;;;;13.10;6.40;;;16.10;99.90;;;;;;5053935;28;20041;-70
2022/06/17 01:33:24;;;;;;;8.65;6.38;;;16.10;99.90;;;;;;5069794;28;20431;-70
2022/06/17 01:36:06;;;;;;;9.45;6.10;;;16.20;99.90;;;;;;5053787;28;20041;-70
2022/06/17 01:38:35;;;;;;;12.07;6.60;;;16.20;99.90;;;;;;5054032;28;20080;-70
2022/06/17 01:41:02;;;;;;;13.27;6.72;;;16.20;99.90;;;;;;5068975;28;20107;-70
2022/06/17 01:43:56;;;;;;;8.60;6.00;;;16.30;99.90;;;;;;5053596;28;20052;-70
2022/06/17 01:46:25;;;;;;;8.88;6.25;;;16.30;99.90;;;;;;5035516;28;20057;-70
2022/06/17 01:49:32;;;;;;;9.35;6.55;;;16.30;99.90;;;;;;5053955;28;20131;-70
2022/06/17 01:52:16;;;;;;;9.75;5.85;;;16.30;99.90;;;;;;5047415;28;20381;-70
2022/06/17 01:54:55;;;;;;;10.63;6.45;;;16.30;99.90;;;;;;5069335;28;20041;-70
2022/06/17 01:57:35;;;;;;;8.43;5.47;;;16.20;99.90;;;;;;5053494;28;20195;-70
2022/06/17 02:00:12;;;;;;;10.18;6.20;;;16.20;99.90;;;;;;5069198;28;20128;-70
2022/06/17 02:02:40;;;;;;;9.57;5.93;;;16.20;99.90;;;;;;5053527;28;20045;-70
2022/06/17 02:05:08;;;;;;;7.35;5.28;;;16.10;99.90;;;;;;5053488;28;20091;-70
2022/06/17 02:07:46;;;;;;;7.05;4.80;;;16.10;99.90;;;;;;5053223;28;20056;-70
2022/06/17 02:10:12;;;;;;;9.05;5.45;;;16.10;99.90;;;;;;5069166;28;20045;-70
2022/06/17 02:12:39;;;;;;;9.02;5.43;;;16.10;99.90;;;;;;5053274;28;20060;-70
2022/06/17 02:15:05;;;;;;;6.70;5.30;;;16.10;99.90;;;;;;5053313;28;20048;-70
2022/06/17 02:17:38;;;;;;;7.82;5.03;;;16.10;99.90;;;;;;5069165;28;20053;-70
2022/06/17 02:20:04;;;;;;;8.65;4.53;;;16.10;99.90;;;;;;5053193;28;20060;-70
2022/06/17 02:22:32;;;;;;;7.43;5.18;;;16.00;99.90;;;;;;5052916;28;20132;-70
2022/06/17 02:25:01;;;;;;;6.93;4.65;;;16.00;99.90;;;;;;5053012;28;20044;-70
2022/06/17 02:27:28;;;;;;;6.70;4.60;;;16.00;99.90;;;;;;5053038;28;20057;-70
2022/06/17 02:29:54;;;;;;;9.55;5.43;;;16.00;99.90;;;;;;5053295;28;20059;-70
2022/06/17 02:32:20;;;;;;;7.55;4.95;;;15.90;99.90;;;;;;5053102;28;20552;-70
2022/06/17 02:34:55;;;;;;;6.72;4.80;;;15.90;99.90;;;;;;5068752;28;20396;-70
2022/06/17 02:37:22;;;;;;;7.50;4.95;;;16.00;99.90;;;;;;5054667;28;20049;-70
2022/06/17 02:39:50;;;;;;;6.38;4.38;;;16.00;99.90;;;;;;5072696;28;20053;-70
2022/06/17 02:42:16;;;;;;;7.13;4.38;;;15.90;99.90;;;;;;5057065;28;20049;-70
2022/06/17 02:44:42;;;;;;;7.25;4.35;;;15.80;99.90;;;;;;5072917;28;20380;-70
2022/06/17 02:47:10;;;;;;;6.70;4.20;;;15.80;99.90;;;;;;5057018;28;20136;-70
2022/06/17 02:49:36;;;;;;;7.10;4.45;;;15.70;99.90;;;;;;5055957;28;20070;-70
2022/06/17 02:52:07;;;;;;;6.85;4.20;;;15.70;99.90;;;;;;5072094;28;20119;-70
2022/06/17 02:54:41;;;;;;;6.97;4.40;;;15.70;99.90;;;;;;5057606;28;20045;-70
2022/06/17 02:57:09;;;;;;;7.80;4.38;;;15.70;99.90;;;;;;5056944;28;20053;-70
2022/06/17 03:00:09;;;;;;;6.65;3.95;;;15.70;99.90;;;;;;5072907;28;20499;-70
2022/06/17 03:02:42;;;;;;;7.20;4.22;;;15.60;99.90;;;;;;5056026;28;20052;-70
2022/06/17 03:05:29;;;;;;;8.05;4.85;;;15.70;99.90;;;;;;5072410;28;20052;-70
2022/06/17 03:07:57;;;;;;;7.38;4.03;;;15.70;99.90;;;;;;5057056;28;20083;-70
2022/06/17 03:10:35;;;;;;;6.05;3.65;;;15.70;99.90;;;;;;5072091;28;20059;-70
2022/06/17 03:13:31;;;;;;;5.90;3.80;;;15.60;99.90;;;;;;5056456;28;20072;-70
2022/06/17 03:16:02;;;;;;;5.60;3.83;;;15.60;99.90;;;;;;5056668;28;20040;-70
2022/06/17 03:18:29;;;;;;;5.25;3.55;;;15.60;99.90;;;;;;5056618;28;20408;-70
2022/06/17 03:20:55;;;;;;;7.03;4.03;;;15.70;99.90;;;;;;5056424;28;20049;-70
2022/06/17 03:23:30;;;;;;;5.97;3.88;;;15.70;99.90;;;;;;5055989;28;20049;-70
2022/06/17 03:26:04;;;;;;;6.53;3.80;;;15.70;99.90;;;;;;5056185;28;20093;-70
2022/06/17 03:28:35;;;;;;;7.63;4.40;;;15.80;99.90;;;;;;5056434;28;20393;-70
2022/06/17 03:31:06;;;;;;;5.55;4.03;;;15.90;99.90;;;;;;5056181;28;20048;-70
2022/06/17 03:33:40;;;;;;;6.78;4.13;;;15.90;99.90;;;;;;5056200;28;20080;-70
2022/06/17 03:36:41;;;;;;;7.10;4.22;;;16.00;99.90;;;;;;5071590;28;20057;-70
2022/06/17 03:39:19;;;;;;;8.57;5.15;;;16.10;99.90;;;;;;5055828;28;20554;-70
2022/06/17 03:42:13;;;;;;;6.72;4.72;;;16.20;99.90;;;;;;5056041;28;20044;-70
2022/06/17 03:44:50;;;;;;;8.98;5.65;;;16.30;99.90;;;;;;5055922;28;20447;-70
2022/06/17 03:47:32;;;;;;;7.93;4.78;;;16.30;99.90;;;;;;5056016;28;20059;-70
2022/06/17 03:50:02;;;;;;;7.07;4.28;;;16.40;99.90;;;;;;5071848;28;20094;-70
2022/06/17 03:52:48;;;;;;;7.05;3.85;;;16.40;99.90;;;;;;5055599;28;20051;-70
2022/06/17 03:55:16;;;;;;;6.53;3.75;;;16.30;99.90;;;;;;5071685;28;20084;-70
2022/06/17 03:57:46;;;;;;;8.15;3.97;;;16.30;99.90;;;;;;5055688;28;20122;-70
2022/06/17 04:00:47;;;;;;;7.43;4.00;;;16.30;99.90;;;;;;5056064;28;20122;-70
2022/06/17 04:03:21;;;;;;;5.70;3.90;;;16.20;99.90;;;;;;5055383;28;20548;-70
2022/06/17 04:05:52;;;;;;;3.58;3.05;;;16.30;99.90;;;;;;5055537;28;20106;-70
2022/06/17 04:08:18;;;;;;;5.13;3.97;;;16.20;99.90;;;;;;5055538;28;20084;-70
2022/06/17 04:10:44;;;;;;;6.65;3.75;;;16.30;99.90;;;;;;5055526;28;20086;-70
2022/06/17 04:13:16;;;;;;;7.80;3.80;;;16.30;99.90;;;;;;5055492;28;20073;-70
2022/06/17 04:16:20;;;;;;;5.47;3.83;;;16.40;99.90;;;;;;5055351;28;20133;-70
2022/06/17 04:18:46;;;;;;;6.90;4.05;;;16.60;99.90;;;;;;5024156;28;20057;-70
2022/06/17 04:21:15;;;;;;;6.45;4.10;;;16.60;99.90;;;;;;5055219;28;20124;-70
2022/06/17 04:23:42;;;;;;;6.80;4.05;;;16.80;99.90;;;;;;5054692;28;20051;-70
2022/06/17 04:26:27;;;;;;;6.68;3.63;;;16.90;99.90;;;;;;5054986;28;20041;-70
2022/06/17 04:29:04;;;;;;;9.20;3.85;;;17.00;99.90;;;;;;5055169;28;20079;-70
2022/06/17 04:31:31;;;;;;;6.78;3.70;;;17.20;99.90;;;;;;5055304;28;20084;-72
2022/06/17 04:34:04;;;;;;;6.88;3.92;;;17.20;99.90;;;;;;5054016;28;20037;-70
2022/06/17 04:36:39;;;;;;;7.05;3.90;;;17.30;99.90;;;;;;5053646;28;20514;-70
2022/06/17 04:39:23;;;;;;;10.95;4.80;;;17.40;99.90;;;;;;5054853;28;20080;-70
2022/06/17 04:41:52;;;;;;;6.68;4.22;;;17.50;99.90;;;;;;5055149;28;20049;-70
2022/06/17 04:44:18;;;;;;;6.75;3.85;;;17.40;99.90;;;;;;5055054;28;20053;-70
2022/06/17 04:46:49;;;;;;;11.60;5.07;;;17.50;99.90;;;;;;5054386;28;20037;-70
2022/06/17 04:49:21;;;;;;;6.47;4.55;;;17.60;99.90;;;;;;5054883;28;20053;-70
2022/06/17 04:51:48;;;;;;;10.50;4.60;;;17.60;99.90;;;;;;5054480;28;20087;-77
2022/06/17 04:54:14;;;;;;;7.43;4.90;;;17.70;99.90;;;;;;5054466;28;20103;-70
2022/06/17 04:56:45;;;;;;;8.55;4.78;;;17.80;99.90;;;;;;5054702;28;20053;-70
2022/06/17 04:59:26;;;;;;;7.72;4.28;;;17.80;99.90;;;;;;5054037;28;20088;-70
2022/06/17 05:01:53;;;;;;;6.57;4.30;;;17.80;99.90;;;;;;5054559;28;20049;-70
2022/06/17 05:04:19;;;;;;;6.10;4.15;;;17.90;99.90;;;;;;5054316;28;20077;-70
2022/06/17 05:06:45;;;;;;;8.50;4.50;;;18.00;99.90;;;;;;5054404;28;20091;-70
2022/06/17 05:09:31;;;;;;;8.35;3.92;;;18.00;99.90;;;;;;5054637;28;20080;-70
2022/06/17 05:12:07;;;;;;;10.50;4.87;;;18.00;99.90;;;;;;5054275;28;20365;-70
2022/06/17 05:14:52;;;;;;;9.07;5.68;;;18.10;99.90;;;;;;5070030;28;20056;-70
2022/06/17 05:17:19;;;;;;;7.70;4.97;;;18.10;99.90;;;;;;5054133;28;20044;-70
2022/06/17 05:19:44;;;;;;;8.18;5.10;;;18.20;99.90;;;;;;5069826;28;20045;-70
2022/06/17 05:22:16;;;;;;;9.57;5.00;;;18.20;99.90;;;;;;5069547;28;20432;-70
2022/06/17 05:24:43;;;;;;;8.18;5.45;;;18.20;99.90;;;;;;5054245;28;20043;-70
2022/06/17 05:27:10;;;;;;;10.25;4.88;;;18.20;99.90;;;;;;5053780;28;20534;-70
2022/06/17 05:29:36;;;;;;;7.47;4.82;;;18.30;99.90;;;;;;5054235;28;20044;-70
2022/06/17 05:32:01;;;;;;;9.55;5.53;;;18.30;99.90;;;;;;5053892;28;20432;-70
2022/06/17 05:34:27;;;;;;;7.45;5.22;;;18.20;99.90;;;;;;5053825;28;20131;-70
2022/06/17 05:36:56;;;;;;;11.13;5.85;;;18.20;99.90;;;;;;5053891;28;20037;-70
2022/06/17 05:39:21;;;;;;;8.30;4.95;;;18.30;99.90;;;;;;5052661;28;20053;-70
2022/06/17 05:41:47;;;;;;;8.18;5.35;;;18.20;99.90;;;;;;5053674;28;20056;-70
2022/06/17 05:44:14;;;;;;;10.73;5.85;;;18.20;99.90;;;;;;5054168;28;20045;-70
2022/06/17 05:46:39;;;;;;;9.68;6.40;;;18.30;99.90;;;;;;5053551;28;20095;-70
2022/06/17 05:49:05;;;;;;;9.55;5.80;;;18.30;99.90;;;;;;5053690;28;20091;-70
2022/06/17 05:51:31;;;;;;;11.02;6.35;;;18.30;99.90;;;;;;5053278;28;20400;-70
2022/06/17 05:53:57;;;;;;;10.30;6.40;;;18.50;99.90;;;;;;5053383;28;20052;-70
2022/06/17 05:56:23;;;;;;;10.85;6.07;;;18.40;99.90;;;;;;5052514;28;20084;-70
2022/06/17 05:58:49;;;;;;;11.02;6.03;;;18.30;99.90;;;;;;5053488;28;20088;-70
2022/06/17 06:01:15;;;;;;;14.63;6.43;;;18.50;99.90;;;;;;5053459;28;20551;-70
2022/06/17 06:03:40;;;;;;;8.68;5.95;;;18.50;99.90;;;;;;5053325;28;20179;-70
2022/06/17 06:06:06;;;;;;;9.63;5.82;;;18.70;99.90;;;;;;5068975;28;20472;-70
2022/06/17 06:08:32;;;;;;;11.30;5.93;;;18.70;99.90;;;;;;5068965;28;20132;-70
2022/06/17 06:10:58;;;;;;;10.68;6.32;;;18.80;99.90;;;;;;5053181;28;20085;-70
2022/06/17 06:13:24;;;;;;;8.02;5.65;;;18.70;99.90;;;;;;5053236;28;20049;-70
2022/06/17 06:15:54;;;;;;;9.95;6.15;;;18.90;99.90;;;;;;5053498;28;20037;-70
2022/06/17 06:18:23;;;;;;;8.63;5.40;;;19.10;99.90;;;;;;5053093;28;20048;-72
2022/06/17 06:20:50;;;;;;;11.88;6.53;;;19.10;99.90;;;;;;5053032;28;20049;-70
2022/06/17 06:23:16;;;;;;;9.95;6.40;;;19.20;99.90;;;;;;5053099;28;20457;-70
2022/06/17 06:25:42;;;;;;;9.93;5.93;;;19.20;99.90;;;;;;5053070;28;20132;-70
2022/06/17 06:28:22;;;;;;;11.45;5.90;;;19.20;99.90;;;;;;5053222;28;20110;-70
2022/06/17 06:30:57;;;;;;;8.80;5.22;;;19.20;99.90;;;;;;5053209;28;20463;-70
2022/06/17 06:33:23;;;;;;;10.85;6.70;;;19.20;99.90;;;;;;5068801;28;20052;-70
2022/06/17 06:35:49;;;;;;;10.55;6.20;;;19.30;99.90;;;;;;5053075;28;20120;-70
2022/06/17 06:38:14;;;;;;;9.27;6.38;;;19.30;99.90;;;;;;5053096;28;20526;-70
2022/06/17 06:40:41;;;;;;;11.57;6.53;;;19.40;99.90;;;;;;5053241;28;20106;-70
2022/06/17 06:43:16;;;;;;;9.05;6.10;;;19.30;99.90;;;;;;5053139;28;20049;-70
2022/06/17 06:45:43;;;;;;;11.43;6.40;;;19.40;99.90;;;;;;5053020;28;20033;-70
2022/06/17 06:48:12;;;;;;;11.55;6.63;;;19.40;99.90;;;;;;5053056;28;20056;-70
2022/06/17 06:50:38;;;;;;;8.93;6.03;;;19.30;99.90;;;;;;5053084;28;20082;-70
2022/06/17 06:53:05;;;;;;;13.45;6.55;;;19.30;99.90;;;;;;5052420;28;20045;-70
2022/06/17 06:55:31;;;;;;;8.82;6.50;;;19.50;99.90;;;;;;5053034;28;20057;-70
2022/06/17 06:58:00;;;;;;;12.30;6.85;;;19.60;99.90;;;;;;5053142;28;20049;-70
2022/06/17 07:00:32;;;;;;;14.48;5.95;;;19.80;99.90;;;;;;5068479;28;20052;-70
2022/06/17 07:02:57;;;;;;;10.02;6.25;;;20.00;99.90;;;;;;5052936;28;20489;-70
2022/06/17 07:05:23;;;;;;;10.98;5.90;;;20.10;99.90;;;;;;5052733;28;20052;-70
2022/06/17 07:07:49;;;;;;;15.02;6.03;;;20.10;99.90;;;;;;5070175;28;20036;-70
2022/06/17 07:10:25;;;;;;;10.15;5.15;;;20.20;99.90;;;;;;5071685;28;20040;-70
2022/06/17 07:12:50;;;;;;;11.52;6.43;;;20.40;99.90;;;;;;5072825;28;20518;-92
2022/06/17 07:15:17;;;;;;;14.98;6.18;;;20.50;99.90;;;;;;5039657;28;20044;-70
2022/06/17 07:18:05;;;;;;;10.07;5.95;;;20.50;99.90;;;;;;5072738;28;20586;-70
2022/06/17 07:20:37;;;;;;;11.45;5.70;;;20.50;99.90;;;;;;5072951;28;20052;-72
2022/06/17 07:23:08;;;;;;;9.38;6.25;;;20.70;99.90;;;;;;5072925;28;20605;-69
2022/06/17 07:25:34;;;;;;;11.30;6.10;;;20.70;99.90;;;;;;5076321;28;20391;-69
2022/06/17 07:28:01;;;;;;;11.48;6.90;;;20.70;99.90;;;;;;5076354;28;20488;-69
2022/06/17 07:30:28;;;;;;;16.77;6.47;;;20.70;99.90;;;;;;5076171;28;20181;-69
2022/06/17 07:32:53;;;;;;;11.05;6.22;;;20.90;99.90;;;;;;5075366;28;20139;-69
2022/06/17 07:35:19;;;;;;;9.32;6.68;;;20.70;99.90;;;;;;5076221;28;20132;-69
2022/06/17 07:40:31;;;;;;;13.40;6.78;;;20.80;99.90;;;;;;5076364;28;20075;-69
2022/06/17 07:42:57;;;;;;;8.57;5.72;;;20.80;99.90;;;;;;5076425;28;20052;-69
2022/06/17 07:45:24;;;;;;;10.25;6.25;;;20.90;99.90;;;;;;5076448;28;20509;-73
2022/06/17 07:47:52;;;;;;;8.70;6.38;;;21.10;99.90;;;;;;5081562;28;20068;-71
2022/06/17 07:50:25;;;;;;;9.70;6.05;;;21.20;99.90;;;;;;5075728;28;20518;-72
2022/06/17 07:52:51;;;;;;;8.52;5.50;;;21.30;99.90;;;;;;5075570;28;20044;-72
2022/06/17 07:55:17;;;;;;;8.82;5.80;;;21.40;99.90;;;;;;5074953;28;20502;-71
2022/06/17 07:57:43;;;;;;;12.13;6.60;;;21.50;99.90;;;;;;5075664;28;20049;-71
2022/06/17 08:00:31;;;;;;;9.20;5.70;;;21.60;99.90;;;;;;5074649;28;20049;-71
2022/06/17 08:02:57;;;;;;;10.65;5.75;;;21.90;99.90;;;;;;5075336;28;20057;-71
2022/06/17 08:05:23;;;;;;;9.80;6.32;;;22.20;99.90;;;;;;5075835;28;20102;-71
2022/06/17 08:07:50;;;;;;;8.98;5.57;;;22.20;99.90;;;;;;5075743;28;20049;-71
2022/06/17 08:10:18;;;;;;;9.38;5.20;;;22.20;99.90;;;;;;5075356;28;20505;-71
2022/06/17 08:12:44;;;;;;;7.28;5.72;;;22.10;99.90;;;;;;5075584;28;20051;-71
2022/06/17 08:15:12;;;;;;;9.95;4.95;;;22.20;99.90;;;;;;5075404;28;20044;-71
2022/06/17 08:17:41;;;;;;;8.18;5.35;;;22.20;99.90;;;;;;5075330;28;20573;-73
2022/06/17 08:20:17;;;;;;;9.30;5.03;;;22.40;99.90;;;;;;5075189;28;20076;-71
2022/06/17 08:22:43;;;;;;;8.95;5.10;;;22.50;99.90;;;;;;5075283;28;20040;-70
2022/06/17 08:25:09;;;;;;;7.63;5.13;;;22.40;99.90;;;;;;5075349;28;20387;-71
2022/06/17 08:27:43;;;;;;;8.27;5.30;;;22.40;99.90;;;;;;5073780;28;20064;-71
2022/06/17 08:30:10;;;;;;;8.73;4.97;;;22.60;99.90;;;;;;5074934;28;20048;-71
2022/06/17 08:32:45;;;;;;;8.52;4.97;;;22.70;99.90;;;;;;5075043;28;20091;-71
2022/06/17 08:35:12;;;;;;;10.65;5.22;;;22.80;99.90;;;;;;5074540;28;20119;-86
2022/06/17 08:37:38;;;;;;;9.27;5.75;;;22.70;99.90;;;;;;5073956;28;20090;-84
2022/06/17 08:40:35;;;;;;;7.50;5.60;;;22.70;99.90;;;;;;5057239;28;20087;-84
2022/06/17 08:43:51;;;;;;;10.18;5.72;;;22.60;99.90;;;;;;5074269;28;20045;-84
2022/06/17 08:46:42;;;;;;;9.07;5.47;;;22.80;99.90;;;;;;5056928;28;20053;-84
2022/06/17 08:49:28;;;;;;;11.05;5.03;;;22.90;99.90;;;;;;5074026;28;20136;-84
2022/06/17 08:52:15;;;;;;;7.18;4.95;;;23.00;99.90;;;;;;5057870;28;20091;-95
2022/06/17 08:54:44;;;;;;;14.27;5.35;;;23.10;99.90;;;;;;5057005;28;20052;-70
2022/06/17 08:57:31;;;;;;;12.23;4.97;;;23.20;99.90;;;;;;5074623;28;20071;-71
2022/06/17 09:00:05;;;;;;;18.13;5.88;;;23.20;99.90;;;;;;5074411;28;20114;-71
2022/06/17 09:02:49;;;;;;;11.05;5.10;;;23.10;99.90;;;;;;5073277;28;20067;-71
2022/06/17 09:05:33;;;;;;;8.25;5.13;;;23.20;99.90;;;;;;5073260;28;20055;-88
2022/06/17 09:08:21;;;;;;;7.90;4.53;;;23.20;99.90;;;;;;5073386;28;20044;-70
2022/06/17 09:11:14;;;;;;;9.88;4.70;;;23.10;99.90;;;;;;5074193;28;20561;-68
2022/06/17 09:13:59;;;;;;;12.40;4.38;;;23.40;99.90;;;;;;5074141;28;20041;-70
2022/06/17 09:16:54;;;;;;;9.35;4.70;;;23.70;99.90;;;;;;5074167;28;20041;-71
2022/06/17 09:19:27;;;;;;;9.50;4.75;;;23.90;99.90;;;;;;5074194;28;20127;-70
2022/06/17 09:21:57;;;;;;;10.82;5.25;;;23.70;99.90;;;;;;5073785;28;20545;-70
2022/06/17 09:24:28;;;;;;;7.97;4.47;;;23.60;99.90;;;;;;5072286;28;20091;-70
2022/06/17 09:27:02;;;;;;;10.77;5.05;;;23.70;99.90;;;;;;5073741;28;20056;-70
2022/06/17 09:29:45;;;;;;;14.55;5.55;;;23.60;99.90;;;;;;5073970;28;20056;-70
2022/06/17 09:32:25;;;;;;;9.05;5.22;;;23.60;99.90;;;;;;5072972;28;20044;-70
2022/06/17 09:35:12;;;;;;;8.60;4.82;;;23.70;99.90;;;;;;5073920;28;20503;-70
2022/06/17 09:37:50;;;;;;;12.38;5.57;;;23.80;99.90;;;;;;5072728;28;20052;-70
2022/06/17 09:40:31;;;;;;;10.68;5.43;;;24.00;99.90;;;;;;5073982;28;20084;-70
2022/06/17 09:43:12;;;;;;;9.43;4.97;;;24.10;99.90;;;;;;5072573;28;20411;-71
2022/06/17 09:45:52;;;;;;;8.70;5.15;;;24.40;99.90;;;;;;5073490;28;20041;-70
2022/06/17 09:48:26;;;;;;;9.10;5.10;;;24.80;99.90;;;;;;5073949;28;20048;-70
2022/06/17 09:50:51;;;;;;;9.10;5.13;;;24.80;99.90;;;;;;5073557;28;20166;-70
2022/06/17 09:53:20;;;;;;;7.40;4.65;;;24.70;99.90;;;;;;5073001;28;20053;-70
2022/06/17 09:55:50;;;;;;;7.72;5.22;;;24.90;99.90;;;;;;5072701;28;20487;-70
2022/06/17 09:58:28;;;;;;;9.57;5.18;;;25.20;99.90;;;;;;5073907;28;20450;-70
2022/06/17 10:00:56;;;;;;;7.78;4.63;;;25.40;99.90;;;;;;5073695;28;20159;-89
2022/06/17 10:03:33;;;;;;;9.43;4.70;;;25.10;99.90;;;;;;5072852;28;20059;-70
2022/06/17 10:06:21;;;;;;;8.40;5.00;;;24.70;99.90;;;;;;5073309;28;20126;-70
2022/06/17 10:08:53;;;;;;;10.40;4.75;;;24.60;99.90;;;;;;5073428;28;20052;-70
2022/06/17 10:11:45;;;;;;;7.68;3.50;;;24.60;99.90;;;;;;5073634;28;20059;-71
2022/06/17 10:14:42;;;;;;;7.03;4.20;;;24.80;99.90;;;;;;5073205;28;20053;-71
2022/06/17 10:20:42;;;;;;;7.78;3.80;;;24.80;99.90;;;;;;5073587;28;20074;-71
2022/06/17 10:23:41;;;;;;;6.57;3.50;;;24.40;99.90;;;;;;5072890;28;20391;-71
2022/06/17 10:26:26;;;;;;;9.43;3.90;;;24.30;99.90;;;;;;5071949;28;20040;-74
2022/06/17 10:29:06;;;;;;;12.52;3.30;;;24.20;99.90;;;;;;5072216;28;20079;-74
2022/06/17 10:31:45;;;;;;;7.57;4.00;;;24.20;99.90;;;;;;5073376;28;20498;-76
2022/06/17 10:34:27;;;;;;;5.70;3.13;;;24.00;99.90;;;;;;5073514;28;20053;-75
2022/06/17 10:36:54;;;;;;;8.75;4.35;;;23.80;99.90;;;;;;5073819;28;20048;-87
2022/06/17 10:39:23;;;;;;;8.50;3.17;;;23.90;99.90;;;;;;5057681;28;20491;-84
2022/06/17 10:41:50;;;;;;;7.75;3.35;;;23.80;99.90;;;;;;5074841;28;20129;-86
2022/06/17 10:44:17;;;;;;;4.28;2.78;;;24.00;99.90;;;;;;5073141;28;20045;-94
2022/06/17 10:46:49;;;;;;;5.40;3.10;;;24.00;99.90;;;;;;5073228;28;20115;-94
2022/06/17 10:49:24;;;;;;;11.00;3.80;;;24.20;99.90;;;;;;5055311;28;20046;-73
2022/06/17 10:51:53;;;;;;;7.60;3.40;;;24.30;99.90;;;;;;5071664;28;20141;-73
2022/06/17 10:54:38;;;;;;;6.13;3.13;;;24.50;99.90;;;;;;5072822;28;20048;-72
2022/06/17 10:57:21;;;;;;;7.82;3.35;;;24.80;99.90;;;;;;5071829;28;20058;-70
2022/06/17 10:59:47;;;;;;;6.72;3.65;;;25.10;99.90;;;;;;5075466;28;20070;-73
2022/06/17 11:02:21;;;;;;;6.78;3.33;;;25.60;99.90;;;;;;5076860;28;20044;-70
2022/06/17 11:04:54;;;;;;;10.48;4.07;;;25.80;99.90;;;;;;5075754;28;20047;-71
2022/06/17 11:07:37;;;;;;;8.40;3.90;;;25.50;99.90;;;;;;5076715;28;20040;-71
2022/06/17 11:10:14;;;;;;;5.78;3.28;;;25.50;99.90;;;;;;5076824;28;20051;-71
2022/06/17 11:13:06;;;;;;;9.73;4.13;;;25.40;99.90;;;;;;5076563;28;20052;-72
2022/06/17 11:15:36;;;;;;;14.52;3.97;;;25.30;99.90;;;;;;5072118;28;20052;-72
2022/06/17 11:18:08;;;;;;;8.40;4.15;;;25.20;99.90;;;;;;5080384;28;20053;-71
2022/06/17 11:20:38;;;;;;;9.82;4.25;;;25.30;99.90;;;;;;5076562;28;20044;-83
2022/06/17 11:23:21;;;;;;;8.20;3.58;;;25.50;99.90;;;;;;5058007;28;20403;-72
2022/06/17 11:25:47;;;;;;;7.18;4.05;;;25.50;99.90;;;;;;5075892;28;20048;-70
2022/06/17 11:28:34;;;;;;;10.38;4.00;;;25.80;99.90;;;;;;5075821;28;20486;-70
2022/06/17 11:31:12;;;;;;;9.68;4.70;;;26.10;99.90;;;;;;5076338;28;20040;-71
2022/06/17 11:33:54;;;;;;;8.15;4.45;;;26.00;99.90;;;;;;5076384;28;20109;-70
2022/06/17 11:36:24;;;;;;;11.05;4.18;;;26.20;99.90;;;;;;5075339;28;20111;-70
2022/06/17 11:38:50;;;;;;;7.40;3.80;;;26.60;99.90;;;;;;5076167;28;20059;-70
2022/06/17 11:41:41;;;;;;;10.32;4.35;;;26.80;99.90;;;;;;5075999;28;20062;-70
2022/06/17 11:44:12;;;;;;;6.35;4.22;;;26.60;99.90;;;;;;5075802;28;20052;-68
2022/06/17 11:46:49;;;;;;;9.57;4.47;;;26.80;99.90;;;;;;5076413;28;20041;-70
2022/06/17 11:49:17;;;;;;;6.43;3.92;;;26.50;99.90;;;;;;5075002;28;20372;-70
2022/06/17 11:51:55;;;;;;;11.45;4.32;;;26.40;99.90;;;;;;5074806;28;20437;-69
2022/06/17 11:54:54;;;;;;;8.18;4.70;;;26.50;99.80;;;;;;5074404;28;20407;-71
2022/06/17 11:57:27;;;;;;;6.82;3.95;;;26.60;99.60;;;;;;5074168;28;20403;-70
2022/06/17 11:59:56;;;;;;;7.43;3.75;;;26.70;99.90;;;;;;5076168;28;20080;-83
2022/06/17 12:02:22;;;;;;;7.15;3.90;;;26.60;99.90;;;;;;5074602;28;20063;-79
2022/06/17 12:05:06;;;;;;;7.93;3.58;;;26.60;99.90;;;;;;5074365;28;20483;-79
2022/06/17 12:07:38;;;;;;;9.32;4.10;;;26.60;99.90;;;;;;5074972;28;20498;-78
2022/06/17 12:10:25;;;;;;;6.85;4.00;;;26.50;99.90;;;;;;5074389;28;20513;-79
2022/06/17 12:12:56;;;;;;;6.80;3.83;;;26.60;99.90;;;;;;5074699;28;20056;-81
2022/06/17 12:15:31;;;;;;;7.68;4.15;;;26.60;99.70;;;;;;5074660;28;20056;-85
2022/06/17 12:18:00;;;;;;;8.15;4.00;;;26.70;99.90;;;;;;5074416;28;20045;-88
2022/06/17 12:20:50;;;;;;;6.22;3.63;;;26.90;99.90;;;;;;5057789;28;20056;-70
2022/06/17 12:23:24;;;;;;;7.05;3.13;;;27.10;99.60;;;;;;5074868;28;20047;-71
2022/06/17 12:26:18;;;;;;;6.45;3.47;;;27.80;99.50;;;;;;5074198;28;20049;-70
2022/06/17 12:28:56;;;;;;;6.05;3.10;;;27.80;99.50;;;;;;5070792;28;20051;-78
2022/06/17 12:31:45;;;;;;;7.75;3.15;;;27.50;99.90;;;;;;5074994;28;20057;-77
2022/06/17 12:34:23;;;;;;;7.78;3.05;;;27.10;99.20;;;;;;5057341;28;20044;-78
2022/06/17 12:36:56;;;;;;;6.68;3.42;;;27.00;99.20;;;;;;5074302;28;20052;-78
2022/06/17 12:39:35;;;;;;;5.93;3.35;;;27.20;99.90;;;;;;5074469;28;20045;-78
2022/06/17 12:42:11;;;;;;;7.40;3.63;;;27.20;99.30;;;;;;5074091;28;20056;-78
2022/06/17 12:45:00;;;;;;;10.60;3.95;;;27.10;99.50;;;;;;5073776;28;20048;-78
2022/06/17 12:47:55;;;;;;;7.95;3.20;;;27.20;99.60;;;;;;5074056;28;20140;-69
2022/06/17 12:53:35;;;;;;;9.25;3.42;;;28.10;99.40;;;;;;5063207;28;20048;-70
2022/06/17 12:56:21;;;;;;;7.22;3.63;;;28.30;99.30;;;;;;5074495;28;20041;-70
2022/06/17 12:59:08;;;;;;;6.35;3.10;;;28.20;99.50;;;;;;5074423;28;20519;-70
2022/06/17 13:01:40;;;;;;;7.18;3.20;;;28.00;99.40;;;;;;5074287;28;20564;-70
2022/06/17 13:04:43;;;;;;;5.05;3.42;;;28.20;99.90;;;;;;5074574;28;20041;-71
2022/06/17 13:07:19;;;;;;;4.47;2.95;;;28.40;99.70;;;;;;5072920;28;20566;-71
2022/06/17 13:13:09;;;;;;;5.97;3.00;;;28.40;99.20;;;;;;5074546;28;20101;-72
2022/06/17 13:15:42;;;;;;;5.70;3.33;;;28.60;99.50;;;;;;5073163;28;20048;-74
2022/06/17 13:18:17;;;;;;;6.38;3.15;;;28.60;99.80;;;;;;5073104;28;20055;-74
2022/06/17 13:21:28;;;;;;;5.75;3.13;;;28.60;99.70;;;;;;5073240;28;20041;-77
2022/06/17 13:24:19;;;;;;;8.50;3.20;;;28.60;99.70;;;;;;5053719;28;20058;-75
2022/06/17 13:27:00;;;;;;;6.45;3.08;;;28.50;99.60;;;;;;5073250;28;20055;-75
2022/06/17 13:29:44;;;;;;;6.38;3.35;;;28.40;99.40;;;;;;5072478;28;20056;-75
2022/06/17 13:32:20;;;;;;;5.22;2.88;;;28.00;98.80;;;;;;5074240;28;20479;-74